sensor_id;sensor_type;location;lat;lon;timestamp;P1;durP1;ratioP1;P2;durP2;ratioP2
10920;SDS011;5513;50.580;8.818;2023-03-14T00:00:16;1.33;;;1.20;;
10920;SDS011;5513;50.580;8.818;2023-03-14T00:02:44;1.77;;;1.23;;
10920;SDS011;5513;50.580;8.818;2023-03-14T00:05:12;1.63;;;1.17;;
10920;SDS011;5513;50.580;8.818;2023-03-14T00:07:43;3.00;;;1.23;;
10920;SDS011;5513;50.580;8.818;2023-03-14T00:10:15;2.33;;;1.47;;
10920;SDS011;5513;50.580;8.818;2023-03-14T00:12:45;5.07;;;1.30;;
10920;SDS011;5513;50.580;8.818;2023-03-14T00:15:15;3.07;;;1.50;;
10920;SDS011;5513;50.580;8.818;2023-03-14T00:17:45;2.87;;;1.20;;
10920;SDS011;5513;50.580;8.818;2023-03-14T00:20:14;1.77;;;1.40;;
10920;SDS011;5513;50.580;8.818;2023-03-14T00:22:47;3.90;;;1.33;;
10920;SDS011;5513;50.580;8.818;2023-03-14T00:25:15;3.63;;;1.53;;
10920;SDS011;5513;50.580;8.818;2023-03-14T00:27:44;2.47;;;1.47;;
10920;SDS011;5513;50.580;8.818;2023-03-14T00:30:13;1.57;;;1.30;;
10920;SDS011;5513;50.580;8.818;2023-03-14T00:32:42;3.30;;;1.53;;
10920;SDS011;5513;50.580;8.818;2023-03-14T00:35:11;3.10;;;1.57;;
10920;SDS011;5513;50.580;8.818;2023-03-14T00:37:40;3.63;;;1.40;;
10920;SDS011;5513;50.580;8.818;2023-03-14T00:40:12;4.17;;;1.50;;
10920;SDS011;5513;50.580;8.818;2023-03-14T00:42:40;2.67;;;1.70;;
10920;SDS011;5513;50.580;8.818;2023-03-14T00:45:11;1.77;;;1.57;;
10920;SDS011;5513;50.580;8.818;2023-03-14T00:47:39;3.37;;;1.53;;
10920;SDS011;5513;50.580;8.818;2023-03-14T00:50:12;2.87;;;1.60;;
10920;SDS011;5513;50.580;8.818;2023-03-14T00:52:41;4.27;;;1.57;;
10920;SDS011;5513;50.580;8.818;2023-03-14T00:55:11;2.60;;;1.67;;
10920;SDS011;5513;50.580;8.818;2023-03-14T00:57:40;2.53;;;1.60;;
10920;SDS011;5513;50.580;8.818;2023-03-14T01:00:09;4.33;;;1.47;;
10920;SDS011;5513;50.580;8.818;2023-03-14T01:02:39;3.37;;;1.93;;
10920;SDS011;5513;50.580;8.818;2023-03-14T01:05:08;2.73;;;1.40;;
10920;SDS011;5513;50.580;8.818;2023-03-14T01:07:37;4.10;;;1.93;;
10920;SDS011;5513;50.580;8.818;2023-03-14T01:10:06;4.93;;;2.53;;
10920;SDS011;5513;50.580;8.818;2023-03-14T01:12:38;3.70;;;1.50;;
10920;SDS011;5513;50.580;8.818;2023-03-14T01:15:07;3.73;;;1.67;;
10920;SDS011;5513;50.580;8.818;2023-03-14T01:17:37;2.83;;;1.63;;
10920;SDS011;5513;50.580;8.818;2023-03-14T01:20:06;3.53;;;1.70;;
10920;SDS011;5513;50.580;8.818;2023-03-14T01:22:38;3.17;;;1.67;;
10920;SDS011;5513;50.580;8.818;2023-03-14T01:25:08;4.00;;;1.83;;
10920;SDS011;5513;50.580;8.818;2023-03-14T01:27:40;4.57;;;1.73;;
10920;SDS011;5513;50.580;8.818;2023-03-14T01:30:09;3.60;;;1.80;;
10920;SDS011;5513;50.580;8.818;2023-03-14T01:32:39;2.43;;;1.67;;
10920;SDS011;5513;50.580;8.818;2023-03-14T01:35:09;4.27;;;2.07;;
10920;SDS011;5513;50.580;8.818;2023-03-14T01:37:37;5.67;;;2.23;;
10920;SDS011;5513;50.580;8.818;2023-03-14T01:40:06;3.23;;;1.50;;
10920;SDS011;5513;50.580;8.818;2023-03-14T01:42:52;3.83;;;1.77;;
10920;SDS011;5513;50.580;8.818;2023-03-14T01:48:31;4.40;;;1.87;;
10920;SDS011;5513;50.580;8.818;2023-03-14T01:51:03;4.83;;;1.60;;
10920;SDS011;5513;50.580;8.818;2023-03-14T01:53:36;5.03;;;1.70;;
10920;SDS011;5513;50.580;8.818;2023-03-14T01:56:07;4.60;;;2.07;;
10920;SDS011;5513;50.580;8.818;2023-03-14T01:58:41;7.33;;;2.23;;
10920;SDS011;5513;50.580;8.818;2023-03-14T02:01:13;7.07;;;2.17;;
10920;SDS011;5513;50.580;8.818;2023-03-14T02:03:45;6.07;;;2.23;;
10920;SDS011;5513;50.580;8.818;2023-03-14T02:06:17;6.03;;;2.10;;
10920;SDS011;5513;50.580;8.818;2023-03-14T02:08:48;5.40;;;2.20;;
10920;SDS011;5513;50.580;8.818;2023-03-14T02:11:18;4.00;;;2.23;;
10920;SDS011;5513;50.580;8.818;2023-03-14T02:13:48;3.10;;;1.70;;
10920;SDS011;5513;50.580;8.818;2023-03-14T02:16:24;5.20;;;1.90;;
10920;SDS011;5513;50.580;8.818;2023-03-14T02:18:53;4.67;;;1.93;;
10920;SDS011;5513;50.580;8.818;2023-03-14T02:21:23;2.97;;;1.50;;
10920;SDS011;5513;50.580;8.818;2023-03-14T02:24:02;4.17;;;1.97;;
10920;SDS011;5513;50.580;8.818;2023-03-14T02:26:41;3.53;;;1.77;;
10920;SDS011;5513;50.580;8.818;2023-03-14T02:29:14;3.00;;;1.63;;
10920;SDS011;5513;50.580;8.818;2023-03-14T02:31:44;8.63;;;1.80;;
10920;SDS011;5513;50.580;8.818;2023-03-14T02:34:12;5.57;;;1.67;;
10920;SDS011;5513;50.580;8.818;2023-03-14T02:36:41;6.60;;;2.03;;
10920;SDS011;5513;50.580;8.818;2023-03-14T02:39:11;3.53;;;1.60;;
10920;SDS011;5513;50.580;8.818;2023-03-14T02:41:45;4.70;;;1.70;;
10920;SDS011;5513;50.580;8.818;2023-03-14T02:44:17;5.70;;;1.90;;
10920;SDS011;5513;50.580;8.818;2023-03-14T02:46:45;5.37;;;1.90;;
10920;SDS011;5513;50.580;8.818;2023-03-14T02:49:14;7.10;;;1.80;;
10920;SDS011;5513;50.580;8.818;2023-03-14T02:51:44;6.90;;;2.00;;
10920;SDS011;5513;50.580;8.818;2023-03-14T02:54:13;3.00;;;1.47;;
10920;SDS011;5513;50.580;8.818;2023-03-14T02:56:43;3.03;;;1.30;;
10920;SDS011;5513;50.580;8.818;2023-03-14T02:59:11;4.83;;;1.73;;
10920;SDS011;5513;50.580;8.818;2023-03-14T03:01:44;5.10;;;1.50;;
10920;SDS011;5513;50.580;8.818;2023-03-14T03:04:12;4.63;;;1.80;;
10920;SDS011;5513;50.580;8.818;2023-03-14T03:06:41;5.33;;;1.57;;
10920;SDS011;5513;50.580;8.818;2023-03-14T03:09:13;5.17;;;2.10;;
10920;SDS011;5513;50.580;8.818;2023-03-14T03:11:41;6.63;;;1.83;;
10920;SDS011;5513;50.580;8.818;2023-03-14T03:14:10;7.07;;;1.77;;
10920;SDS011;5513;50.580;8.818;2023-03-14T03:16:38;6.80;;;1.90;;
10920;SDS011;5513;50.580;8.818;2023-03-14T03:19:08;5.03;;;1.60;;
10920;SDS011;5513;50.580;8.818;2023-03-14T03:21:36;5.57;;;1.60;;
10920;SDS011;5513;50.580;8.818;2023-03-14T03:24:05;5.27;;;1.90;;
10920;SDS011;5513;50.580;8.818;2023-03-14T03:26:34;5.00;;;1.73;;
10920;SDS011;5513;50.580;8.818;2023-03-14T03:29:02;6.03;;;1.87;;
10920;SDS011;5513;50.580;8.818;2023-03-14T03:31:31;3.40;;;1.40;;
10920;SDS011;5513;50.580;8.818;2023-03-14T03:33:59;7.33;;;1.80;;
10920;SDS011;5513;50.580;8.818;2023-03-14T03:36:34;8.03;;;1.97;;
10920;SDS011;5513;50.580;8.818;2023-03-14T03:39:04;8.07;;;1.40;;
10920;SDS011;5513;50.580;8.818;2023-03-14T03:41:32;6.17;;;1.87;;
10920;SDS011;5513;50.580;8.818;2023-03-14T03:44:01;4.70;;;1.60;;
10920;SDS011;5513;50.580;8.818;2023-03-14T03:46:29;4.70;;;1.77;;
10920;SDS011;5513;50.580;8.818;2023-03-14T03:48:58;4.80;;;1.80;;
10920;SDS011;5513;50.580;8.818;2023-03-14T03:51:28;3.67;;;1.50;;
10920;SDS011;5513;50.580;8.818;2023-03-14T03:53:58;3.63;;;1.70;;
10920;SDS011;5513;50.580;8.818;2023-03-14T03:56:32;6.33;;;1.80;;
10920;SDS011;5513;50.580;8.818;2023-03-14T03:59:10;6.57;;;1.67;;
10920;SDS011;5513;50.580;8.818;2023-03-14T04:01:38;4.57;;;1.67;;
10920;SDS011;5513;50.580;8.818;2023-03-14T04:04:07;3.90;;;1.60;;
10920;SDS011;5513;50.580;8.818;2023-03-14T04:06:36;5.90;;;1.53;;
10920;SDS011;5513;50.580;8.818;2023-03-14T04:09:08;5.63;;;1.90;;
10920;SDS011;5513;50.580;8.818;2023-03-14T04:11:37;5.60;;;1.60;;
10920;SDS011;5513;50.580;8.818;2023-03-14T04:14:05;4.60;;;1.67;;
10920;SDS011;5513;50.580;8.818;2023-03-14T04:16:33;6.37;;;2.07;;
10920;SDS011;5513;50.580;8.818;2023-03-14T04:19:03;3.77;;;1.63;;
10920;SDS011;5513;50.580;8.818;2023-03-14T04:21:31;3.67;;;1.67;;
10920;SDS011;5513;50.580;8.818;2023-03-14T04:24:01;4.80;;;1.50;;
10920;SDS011;5513;50.580;8.818;2023-03-14T04:26:31;3.97;;;1.40;;
10920;SDS011;5513;50.580;8.818;2023-03-14T04:28:59;5.03;;;1.80;;
10920;SDS011;5513;50.580;8.818;2023-03-14T04:31:30;4.30;;;1.63;;
10920;SDS011;5513;50.580;8.818;2023-03-14T04:33:58;5.13;;;1.90;;
10920;SDS011;5513;50.580;8.818;2023-03-14T04:36:27;4.67;;;1.83;;
10920;SDS011;5513;50.580;8.818;2023-03-14T04:38:55;5.93;;;1.87;;
10920;SDS011;5513;50.580;8.818;2023-03-14T04:41:24;6.07;;;1.80;;
10920;SDS011;5513;50.580;8.818;2023-03-14T04:43:54;9.30;;;2.03;;
10920;SDS011;5513;50.580;8.818;2023-03-14T04:46:24;4.60;;;1.87;;
10920;SDS011;5513;50.580;8.818;2023-03-14T04:48:52;9.00;;;3.70;;
10920;SDS011;5513;50.580;8.818;2023-03-14T04:51:22;6.23;;;2.10;;
10920;SDS011;5513;50.580;8.818;2023-03-14T04:53:53;10.47;;;3.37;;
10920;SDS011;5513;50.580;8.818;2023-03-14T04:56:22;7.10;;;2.83;;
10920;SDS011;5513;50.580;8.818;2023-03-14T04:58:50;6.93;;;2.50;;
10920;SDS011;5513;50.580;8.818;2023-03-14T05:01:21;5.00;;;2.10;;
10920;SDS011;5513;50.580;8.818;2023-03-14T05:03:49;5.20;;;2.37;;
10920;SDS011;5513;50.580;8.818;2023-03-14T05:06:18;6.30;;;2.60;;
10920;SDS011;5513;50.580;8.818;2023-03-14T05:08:46;5.00;;;2.27;;
10920;SDS011;5513;50.580;8.818;2023-03-14T05:11:15;4.57;;;1.83;;
10920;SDS011;5513;50.580;8.818;2023-03-14T05:13:43;5.33;;;2.00;;
10920;SDS011;5513;50.580;8.818;2023-03-14T05:16:11;5.37;;;2.00;;
10920;SDS011;5513;50.580;8.818;2023-03-14T05:18:43;7.60;;;2.20;;
10920;SDS011;5513;50.580;8.818;2023-03-14T05:21:11;4.30;;;1.60;;
10920;SDS011;5513;50.580;8.818;2023-03-14T05:23:39;4.67;;;1.93;;
10920;SDS011;5513;50.580;8.818;2023-03-14T05:26:07;7.40;;;1.83;;
10920;SDS011;5513;50.580;8.818;2023-03-14T05:28:36;5.90;;;1.63;;
10920;SDS011;5513;50.580;8.818;2023-03-14T05:31:06;5.43;;;1.53;;
10920;SDS011;5513;50.580;8.818;2023-03-14T05:33:36;4.20;;;1.53;;
10920;SDS011;5513;50.580;8.818;2023-03-14T05:36:09;4.50;;;1.50;;
10920;SDS011;5513;50.580;8.818;2023-03-14T05:38:37;5.40;;;1.93;;
10920;SDS011;5513;50.580;8.818;2023-03-14T05:41:06;5.13;;;1.97;;
10920;SDS011;5513;50.580;8.818;2023-03-14T05:43:35;4.50;;;1.90;;
10920;SDS011;5513;50.580;8.818;2023-03-14T05:46:03;6.00;;;1.93;;
10920;SDS011;5513;50.580;8.818;2023-03-14T05:48:32;4.53;;;1.67;;
10920;SDS011;5513;50.580;8.818;2023-03-14T05:51:00;5.80;;;1.80;;
10920;SDS011;5513;50.580;8.818;2023-03-14T05:53:32;5.10;;;1.67;;
10920;SDS011;5513;50.580;8.818;2023-03-14T05:56:00;3.83;;;1.60;;
10920;SDS011;5513;50.580;8.818;2023-03-14T05:58:29;6.10;;;1.80;;
10920;SDS011;5513;50.580;8.818;2023-03-14T06:00:57;7.33;;;1.97;;
10920;SDS011;5513;50.580;8.818;2023-03-14T06:03:29;7.07;;;1.67;;
10920;SDS011;5513;50.580;8.818;2023-03-14T06:05:57;5.50;;;1.60;;
10920;SDS011;5513;50.580;8.818;2023-03-14T06:08:26;3.00;;;1.30;;
10920;SDS011;5513;50.580;8.818;2023-03-14T06:10:58;3.97;;;1.70;;
10920;SDS011;5513;50.580;8.818;2023-03-14T06:13:26;6.63;;;1.90;;
10920;SDS011;5513;50.580;8.818;2023-03-14T06:15:54;4.70;;;1.80;;
10920;SDS011;5513;50.580;8.818;2023-03-14T06:18:23;5.03;;;1.67;;
10920;SDS011;5513;50.580;8.818;2023-03-14T06:20:53;4.20;;;1.57;;
10920;SDS011;5513;50.580;8.818;2023-03-14T06:23:22;6.27;;;1.50;;
10920;SDS011;5513;50.580;8.818;2023-03-14T06:25:54;4.90;;;1.60;;
10920;SDS011;5513;50.580;8.818;2023-03-14T06:28:26;3.63;;;1.27;;
10920;SDS011;5513;50.580;8.818;2023-03-14T06:30:55;5.60;;;1.40;;
10920;SDS011;5513;50.580;8.818;2023-03-14T06:33:25;3.80;;;1.40;;
10920;SDS011;5513;50.580;8.818;2023-03-14T06:35:53;3.67;;;1.67;;
10920;SDS011;5513;50.580;8.818;2023-03-14T06:38:22;8.53;;;1.13;;
10920;SDS011;5513;50.580;8.818;2023-03-14T06:40:50;4.87;;;1.50;;
10920;SDS011;5513;50.580;8.818;2023-03-14T06:43:19;4.97;;;1.33;;
10920;SDS011;5513;50.580;8.818;2023-03-14T06:45:49;5.20;;;1.20;;
10920;SDS011;5513;50.580;8.818;2023-03-14T06:48:17;3.90;;;1.37;;
10920;SDS011;5513;50.580;8.818;2023-03-14T06:50:47;2.70;;;1.10;;
10920;SDS011;5513;50.580;8.818;2023-03-14T06:53:16;3.70;;;1.43;;
10920;SDS011;5513;50.580;8.818;2023-03-14T06:55:45;5.27;;;1.37;;
10920;SDS011;5513;50.580;8.818;2023-03-14T06:58:14;7.03;;;1.57;;
10920;SDS011;5513;50.580;8.818;2023-03-14T07:00:43;3.63;;;1.23;;
10920;SDS011;5513;50.580;8.818;2023-03-14T07:03:14;5.30;;;1.33;;
10920;SDS011;5513;50.580;8.818;2023-03-14T07:05:43;6.50;;;1.50;;
10920;SDS011;5513;50.580;8.818;2023-03-14T07:08:12;4.20;;;1.30;;
10920;SDS011;5513;50.580;8.818;2023-03-14T07:10:41;4.00;;;0.97;;
10920;SDS011;5513;50.580;8.818;2023-03-14T07:13:11;5.63;;;1.63;;
10920;SDS011;5513;50.580;8.818;2023-03-14T07:15:40;2.80;;;0.97;;
10920;SDS011;5513;50.580;8.818;2023-03-14T07:18:14;4.13;;;1.20;;
10920;SDS011;5513;50.580;8.818;2023-03-14T07:20:44;6.63;;;1.30;;
10920;SDS011;5513;50.580;8.818;2023-03-14T07:23:16;3.83;;;1.10;;
10920;SDS011;5513;50.580;8.818;2023-03-14T07:25:46;25.83;;;16.00;;
10920;SDS011;5513;50.580;8.818;2023-03-14T07:28:14;25.77;;;14.37;;
10920;SDS011;5513;50.580;8.818;2023-03-14T07:30:45;20.43;;;10.30;;
10920;SDS011;5513;50.580;8.818;2023-03-14T07:33:15;3.17;;;1.60;;
10920;SDS011;5513;50.580;8.818;2023-03-14T07:35:43;2.37;;;1.23;;
10920;SDS011;5513;50.580;8.818;2023-03-14T07:38:12;2.90;;;1.13;;
10920;SDS011;5513;50.580;8.818;2023-03-14T07:40:40;3.60;;;1.10;;
10920;SDS011;5513;50.580;8.818;2023-03-14T07:43:09;4.00;;;2.30;;
10920;SDS011;5513;50.580;8.818;2023-03-14T07:45:37;4.57;;;2.30;;
10920;SDS011;5513;50.580;8.818;2023-03-14T07:48:08;5.87;;;2.83;;
10920;SDS011;5513;50.580;8.818;2023-03-14T07:50:38;3.70;;;1.50;;
10920;SDS011;5513;50.580;8.818;2023-03-14T07:53:06;3.53;;;1.83;;
10920;SDS011;5513;50.580;8.818;2023-03-14T07:55:35;5.53;;;2.73;;
10920;SDS011;5513;50.580;8.818;2023-03-14T07:58:04;3.83;;;1.67;;
10920;SDS011;5513;50.580;8.818;2023-03-14T08:00:32;3.87;;;0.90;;
10920;SDS011;5513;50.580;8.818;2023-03-14T08:03:01;3.40;;;1.00;;
10920;SDS011;5513;50.580;8.818;2023-03-14T08:05:30;2.10;;;1.20;;
10920;SDS011;5513;50.580;8.818;2023-03-14T08:07:59;5.23;;;2.60;;
10920;SDS011;5513;50.580;8.818;2023-03-14T08:10:29;12.23;;;6.40;;
10920;SDS011;5513;50.580;8.818;2023-03-14T08:12:59;5.30;;;1.90;;
10920;SDS011;5513;50.580;8.818;2023-03-14T08:15:29;3.10;;;1.90;;
10920;SDS011;5513;50.580;8.818;2023-03-14T08:17:58;3.67;;;1.70;;
10920;SDS011;5513;50.580;8.818;2023-03-14T08:20:29;4.60;;;1.10;;
10920;SDS011;5513;50.580;8.818;2023-03-14T08:23:03;2.70;;;1.20;;
10920;SDS011;5513;50.580;8.818;2023-03-14T08:25:34;1.70;;;1.17;;
10920;SDS011;5513;50.580;8.818;2023-03-14T08:28:03;2.60;;;1.10;;
10920;SDS011;5513;50.580;8.818;2023-03-14T08:30:32;2.97;;;1.00;;
10920;SDS011;5513;50.580;8.818;2023-03-14T08:33:00;1.23;;;0.70;;
10920;SDS011;5513;50.580;8.818;2023-03-14T08:35:30;2.43;;;1.00;;
10920;SDS011;5513;50.580;8.818;2023-03-14T08:38:00;1.67;;;0.70;;
10920;SDS011;5513;50.580;8.818;2023-03-14T08:40:30;1.00;;;0.77;;
10920;SDS011;5513;50.580;8.818;2023-03-14T08:42:58;2.23;;;1.00;;
10920;SDS011;5513;50.580;8.818;2023-03-14T08:45:27;2.13;;;0.90;;
10920;SDS011;5513;50.580;8.818;2023-03-14T08:47:57;2.10;;;0.80;;
10920;SDS011;5513;50.580;8.818;2023-03-14T08:50:26;1.70;;;0.90;;
10920;SDS011;5513;50.580;8.818;2023-03-14T08:52:55;4.10;;;1.87;;
10920;SDS011;5513;50.580;8.818;2023-03-14T08:55:26;1.80;;;0.87;;
10920;SDS011;5513;50.580;8.818;2023-03-14T08:57:58;1.90;;;1.00;;
10920;SDS011;5513;50.580;8.818;2023-03-14T09:00:26;2.27;;;0.97;;
10920;SDS011;5513;50.580;8.818;2023-03-14T09:02:56;3.20;;;1.03;;
10920;SDS011;5513;50.580;8.818;2023-03-14T09:05:25;1.93;;;1.00;;
10920;SDS011;5513;50.580;8.818;2023-03-14T09:07:54;4.43;;;1.67;;
10920;SDS011;5513;50.580;8.818;2023-03-14T09:10:23;2.53;;;1.13;;
10920;SDS011;5513;50.580;8.818;2023-03-14T09:12:54;2.80;;;1.50;;
10920;SDS011;5513;50.580;8.818;2023-03-14T09:15:26;2.23;;;1.00;;
10920;SDS011;5513;50.580;8.818;2023-03-14T09:17:55;3.77;;;1.30;;
10920;SDS011;5513;50.580;8.818;2023-03-14T09:20:23;2.40;;;1.10;;
10920;SDS011;5513;50.580;8.818;2023-03-14T09:22:51;2.30;;;1.00;;
10920;SDS011;5513;50.580;8.818;2023-03-14T09:25:20;2.70;;;1.40;;
10920;SDS011;5513;50.580;8.818;2023-03-14T09:27:48;3.03;;;1.43;;
10920;SDS011;5513;50.580;8.818;2023-03-14T09:30:18;4.00;;;1.33;;
10920;SDS011;5513;50.580;8.818;2023-03-14T09:32:47;2.20;;;1.10;;
10920;SDS011;5513;50.580;8.818;2023-03-14T09:35:16;3.13;;;1.40;;
10920;SDS011;5513;50.580;8.818;2023-03-14T09:37:44;4.07;;;1.47;;
10920;SDS011;5513;50.580;8.818;2023-03-14T09:40:13;2.20;;;1.37;;
10920;SDS011;5513;50.580;8.818;2023-03-14T09:42:44;1.63;;;1.20;;
10920;SDS011;5513;50.580;8.818;2023-03-14T09:45:14;3.23;;;1.40;;
10920;SDS011;5513;50.580;8.818;2023-03-14T09:47:50;1.90;;;1.37;;
10920;SDS011;5513;50.580;8.818;2023-03-14T09:50:25;4.37;;;1.50;;
10920;SDS011;5513;50.580;8.818;2023-03-14T09:52:59;3.37;;;1.53;;
10920;SDS011;5513;50.580;8.818;2023-03-14T09:55:30;2.03;;;1.60;;
10920;SDS011;5513;50.580;8.818;2023-03-14T09:58:03;3.33;;;1.47;;
10920;SDS011;5513;50.580;8.818;2023-03-14T10:00:37;2.27;;;1.40;;
10920;SDS011;5513;50.580;8.818;2023-03-14T10:03:20;5.47;;;1.70;;
10920;SDS011;5513;50.580;8.818;2023-03-14T10:05:52;2.27;;;1.20;;
10920;SDS011;5513;50.580;8.818;2023-03-14T10:08:22;1.10;;;1.00;;
10920;SDS011;5513;50.580;8.818;2023-03-14T10:10:51;1.83;;;1.00;;
10920;SDS011;5513;50.580;8.818;2023-03-14T10:13:21;1.87;;;1.10;;
10920;SDS011;5513;50.580;8.818;2023-03-14T10:15:53;2.83;;;1.20;;
10920;SDS011;5513;50.580;8.818;2023-03-14T10:18:24;1.73;;;0.90;;
10920;SDS011;5513;50.580;8.818;2023-03-14T10:21:01;0.93;;;0.80;;
10920;SDS011;5513;50.580;8.818;2023-03-14T10:23:34;0.67;;;0.63;;
10920;SDS011;5513;50.580;8.818;2023-03-14T10:26:05;3.23;;;0.80;;
10920;SDS011;5513;50.580;8.818;2023-03-14T10:28:43;0.90;;;0.50;;
10920;SDS011;5513;50.580;8.818;2023-03-14T10:31:13;2.27;;;0.70;;
10920;SDS011;5513;50.580;8.818;2023-03-14T10:33:43;1.67;;;0.80;;
10920;SDS011;5513;50.580;8.818;2023-03-14T10:36:29;1.40;;;0.77;;
10920;SDS011;5513;50.580;8.818;2023-03-14T10:38:58;1.20;;;0.80;;
10920;SDS011;5513;50.580;8.818;2023-03-14T10:41:50;2.03;;;0.70;;
10920;SDS011;5513;50.580;8.818;2023-03-14T10:44:23;1.47;;;0.90;;
10920;SDS011;5513;50.580;8.818;2023-03-14T10:46:57;2.20;;;0.90;;
10920;SDS011;5513;50.580;8.818;2023-03-14T10:49:30;1.40;;;0.90;;
10920;SDS011;5513;50.580;8.818;2023-03-14T10:52:02;2.17;;;1.37;;
10920;SDS011;5513;50.580;8.818;2023-03-14T10:54:41;3.13;;;1.70;;
10920;SDS011;5513;50.580;8.818;2023-03-14T10:57:14;2.60;;;1.70;;
10920;SDS011;5513;50.580;8.818;2023-03-14T10:59:42;3.17;;;1.90;;
10920;SDS011;5513;50.580;8.818;2023-03-14T11:02:17;1.90;;;1.70;;
10920;SDS011;5513;50.580;8.818;2023-03-14T11:04:59;1.70;;;1.60;;
10920;SDS011;5513;50.580;8.818;2023-03-14T11:07:41;3.03;;;1.73;;
10920;SDS011;5513;50.580;8.818;2023-03-14T11:10:18;5.70;;;2.30;;
10920;SDS011;5513;50.580;8.818;2023-03-14T11:13:01;4.70;;;2.70;;
10920;SDS011;5513;50.580;8.818;2023-03-14T11:15:41;2.70;;;1.80;;
10920;SDS011;5513;50.580;8.818;2023-03-14T11:18:25;3.77;;;1.90;;
10920;SDS011;5513;50.580;8.818;2023-03-14T11:21:13;2.30;;;1.70;;
10920;SDS011;5513;50.580;8.818;2023-03-14T11:23:47;2.33;;;1.80;;
10920;SDS011;5513;50.580;8.818;2023-03-14T11:26:27;2.53;;;1.90;;
10920;SDS011;5513;50.580;8.818;2023-03-14T11:29:08;3.00;;;2.13;;
10920;SDS011;5513;50.580;8.818;2023-03-14T11:31:47;2.40;;;2.10;;
10920;SDS011;5513;50.580;8.818;2023-03-14T11:34:16;3.03;;;2.20;;
10920;SDS011;5513;50.580;8.818;2023-03-14T11:36:55;3.53;;;2.30;;
10920;SDS011;5513;50.580;8.818;2023-03-14T11:39:31;4.50;;;2.33;;
10920;SDS011;5513;50.580;8.818;2023-03-14T11:42:07;2.90;;;2.10;;
10920;SDS011;5513;50.580;8.818;2023-03-14T11:44:42;2.70;;;2.20;;
10920;SDS011;5513;50.580;8.818;2023-03-14T11:47:15;3.67;;;2.50;;
10920;SDS011;5513;50.580;8.818;2023-03-14T11:49:50;2.80;;;1.93;;
10920;SDS011;5513;50.580;8.818;2023-03-14T11:52:25;2.37;;;1.50;;
10920;SDS011;5513;50.580;8.818;2023-03-14T11:54:58;3.47;;;1.10;;
10920;SDS011;5513;50.580;8.818;2023-03-14T11:57:30;3.87;;;1.30;;
10920;SDS011;5513;50.580;8.818;2023-03-14T11:59:59;0.50;;;0.30;;
10920;SDS011;5513;50.580;8.818;2023-03-14T12:02:33;0.20;;;0.20;;
10920;SDS011;5513;50.580;8.818;2023-03-14T12:05:24;0.30;;;0.30;;
10920;SDS011;5513;50.580;8.818;2023-03-14T12:11:02;0.23;;;0.20;;
10920;SDS011;5513;50.580;8.818;2023-03-14T12:13:37;1.80;;;1.00;;
10920;SDS011;5513;50.580;8.818;2023-03-14T12:16:09;2.43;;;1.37;;
10920;SDS011;5513;50.580;8.818;2023-03-14T12:19:13;1.23;;;0.43;;
10920;SDS011;5513;50.580;8.818;2023-03-14T12:21:57;2.73;;;0.40;;
10920;SDS011;5513;50.580;8.818;2023-03-14T12:24:31;0.30;;;0.30;;
10920;SDS011;5513;50.580;8.818;2023-03-14T12:27:04;0.37;;;0.30;;
10920;SDS011;5513;50.580;8.818;2023-03-14T12:32:32;0.60;;;0.30;;
10920;SDS011;5513;50.580;8.818;2023-03-14T12:35:07;0.30;;;0.30;;
10920;SDS011;5513;50.580;8.818;2023-03-14T12:38:01;0.30;;;0.30;;
10920;SDS011;5513;50.580;8.818;2023-03-14T12:40:35;0.47;;;0.47;;
10920;SDS011;5513;50.580;8.818;2023-03-14T12:43:22;0.40;;;0.40;;
10920;SDS011;5513;50.580;8.818;2023-03-14T12:48:55;0.90;;;0.33;;
10920;SDS011;5513;50.580;8.818;2023-03-14T12:51:34;0.40;;;0.40;;
10920;SDS011;5513;50.580;8.818;2023-03-14T12:54:07;0.60;;;0.40;;
10920;SDS011;5513;50.580;8.818;2023-03-14T12:59:55;0.47;;;0.40;;
10920;SDS011;5513;50.580;8.818;2023-03-14T13:02:26;0.93;;;0.50;;
10920;SDS011;5513;50.580;8.818;2023-03-14T13:05:01;0.50;;;0.40;;
10920;SDS011;5513;50.580;8.818;2023-03-14T13:10:38;0.40;;;0.40;;
10920;SDS011;5513;50.580;8.818;2023-03-14T13:15:57;0.50;;;0.50;;
10920;SDS011;5513;50.580;8.818;2023-03-14T13:18:33;0.60;;;0.60;;
10920;SDS011;5513;50.580;8.818;2023-03-14T13:21:03;0.70;;;0.57;;
10920;SDS011;5513;50.580;8.818;2023-03-14T13:23:53;0.60;;;0.60;;
10920;SDS011;5513;50.580;8.818;2023-03-14T13:26:25;2.40;;;0.87;;
10920;SDS011;5513;50.580;8.818;2023-03-14T13:29:09;1.03;;;0.80;;
10920;SDS011;5513;50.580;8.818;2023-03-14T13:31:45;1.10;;;0.97;;
10920;SDS011;5513;50.580;8.818;2023-03-14T13:34:14;1.03;;;0.90;;
10920;SDS011;5513;50.580;8.818;2023-03-14T13:36:44;1.20;;;1.10;;
10920;SDS011;5513;50.580;8.818;2023-03-14T13:39:17;1.83;;;1.00;;
10920;SDS011;5513;50.580;8.818;2023-03-14T13:41:48;1.90;;;1.10;;
10920;SDS011;5513;50.580;8.818;2023-03-14T13:44:21;1.30;;;1.10;;
10920;SDS011;5513;50.580;8.818;2023-03-14T13:46:57;1.50;;;1.30;;
10920;SDS011;5513;50.580;8.818;2023-03-14T13:49:26;2.00;;;1.03;;
10920;SDS011;5513;50.580;8.818;2023-03-14T13:51:58;2.40;;;1.07;;
10920;SDS011;5513;50.580;8.818;2023-03-14T13:54:27;0.90;;;0.70;;
10920;SDS011;5513;50.580;8.818;2023-03-14T13:56:59;1.17;;;0.70;;
10920;SDS011;5513;50.580;8.818;2023-03-14T13:59:31;1.10;;;0.67;;
10920;SDS011;5513;50.580;8.818;2023-03-14T14:02:03;0.50;;;0.50;;
10920;SDS011;5513;50.580;8.818;2023-03-14T14:04:37;0.50;;;0.50;;
10920;SDS011;5513;50.580;8.818;2023-03-14T14:07:06;1.93;;;0.60;;
10920;SDS011;5513;50.580;8.818;2023-03-14T14:09:38;0.90;;;0.60;;
10920;SDS011;5513;50.580;8.818;2023-03-14T14:12:10;0.93;;;0.60;;
10920;SDS011;5513;50.580;8.818;2023-03-14T14:14:45;2.30;;;0.70;;
10920;SDS011;5513;50.580;8.818;2023-03-14T14:17:17;1.23;;;0.70;;
10920;SDS011;5513;50.580;8.818;2023-03-14T14:19:48;1.20;;;0.67;;
10920;SDS011;5513;50.580;8.818;2023-03-14T14:22:18;0.60;;;0.57;;
10920;SDS011;5513;50.580;8.818;2023-03-14T14:24:48;0.83;;;0.60;;
10920;SDS011;5513;50.580;8.818;2023-03-14T14:27:23;0.60;;;0.60;;
10920;SDS011;5513;50.580;8.818;2023-03-14T14:30:01;0.50;;;0.50;;
10920;SDS011;5513;50.580;8.818;2023-03-14T14:32:35;0.57;;;0.47;;
10920;SDS011;5513;50.580;8.818;2023-03-14T14:35:05;1.13;;;0.60;;
10920;SDS011;5513;50.580;8.818;2023-03-14T14:37:35;0.87;;;0.50;;
10920;SDS011;5513;50.580;8.818;2023-03-14T14:40:15;0.97;;;0.50;;
10920;SDS011;5513;50.580;8.818;2023-03-14T14:42:46;0.70;;;0.70;;
10920;SDS011;5513;50.580;8.818;2023-03-14T14:45:18;0.50;;;0.50;;
10920;SDS011;5513;50.580;8.818;2023-03-14T14:47:48;0.47;;;0.40;;
10920;SDS011;5513;50.580;8.818;2023-03-14T14:50:21;1.20;;;0.50;;
10920;SDS011;5513;50.580;8.818;2023-03-14T14:52:56;0.57;;;0.47;;
10920;SDS011;5513;50.580;8.818;2023-03-14T14:55:29;0.73;;;0.53;;
10920;SDS011;5513;50.580;8.818;2023-03-14T14:58:11;0.40;;;0.40;;
10920;SDS011;5513;50.580;8.818;2023-03-14T15:00:49;0.70;;;0.67;;
10920;SDS011;5513;50.580;8.818;2023-03-14T15:03:24;0.80;;;0.70;;
10920;SDS011;5513;50.580;8.818;2023-03-14T15:05:55;1.03;;;0.70;;
10920;SDS011;5513;50.580;8.818;2023-03-14T15:08:24;1.30;;;0.73;;
10920;SDS011;5513;50.580;8.818;2023-03-14T15:10:55;1.23;;;0.70;;
10920;SDS011;5513;50.580;8.818;2023-03-14T15:13:24;1.90;;;0.47;;
10920;SDS011;5513;50.580;8.818;2023-03-14T15:15:54;0.80;;;0.60;;
10920;SDS011;5513;50.580;8.818;2023-03-14T15:18:24;0.70;;;0.50;;
10920;SDS011;5513;50.580;8.818;2023-03-14T15:20:56;3.13;;;0.67;;
10920;SDS011;5513;50.580;8.818;2023-03-14T15:23:24;1.17;;;0.50;;
10920;SDS011;5513;50.580;8.818;2023-03-14T15:25:53;1.40;;;0.63;;
10920;SDS011;5513;50.580;8.818;2023-03-14T15:28:23;1.50;;;0.80;;
10920;SDS011;5513;50.580;8.818;2023-03-14T15:30:52;1.83;;;0.60;;
10920;SDS011;5513;50.580;8.818;2023-03-14T15:33:23;0.90;;;0.60;;
10920;SDS011;5513;50.580;8.818;2023-03-14T15:35:53;0.40;;;0.40;;
10920;SDS011;5513;50.580;8.818;2023-03-14T15:38:23;2.33;;;0.90;;
10920;SDS011;5513;50.580;8.818;2023-03-14T15:40:51;1.43;;;0.60;;
10920;SDS011;5513;50.580;8.818;2023-03-14T15:43:20;1.33;;;0.50;;
10920;SDS011;5513;50.580;8.818;2023-03-14T15:45:49;1.07;;;0.60;;